God — WDH3056 — position and weather

sailwx.info

Track history (hours):
 
Tides and Currents Weather Stations Pressure Air Temp Water Temp Dewpoint Dewpoint Depression Visibility Wind Speed Wind Dir Waves Ship Positions

God

Owner: Quality tug services LLC, broussard, LA. More information available from US FCC via Universal Licensing System and Coast Guard Vessel Documentation Center.

Last reported at 2017-Sep-18 02:15 UTC. Time now 2017-Sep-23 03:35 UTC.
Position N 30°03' W 093°43'.

Length 18 m; draft 3 m.

Type: Towing. MMSI: 367603820.

Date/timePositionNaut miles runAvg speedWind from/ knotsBaromVisibWave heightAir tempDewpointWater temp
2017-Sep-18 02:15N 30°03' W 093°43'1 3.2
2017-Sep-18 01:53N 30°04' W 093°41'1 3.0
2017-Sep-18 01:30N 30°04' W 093°40'1 2.8
2017-Sep-18 01:00N 30°04' W 093°38'1 2.6
2017-Sep-18 00:30N 30°04' W 093°37'1 2.5
2017-Sep-18 00:00N 30°04' W 093°35'1 2.6
2017-Sep-17 23:30N 30°04' W 093°34'1 2.0
2017-Sep-17 23:00N 30°04' W 093°33'1 2.3
2017-Sep-17 22:30N 30°04' W 093°31'1 2.3
2017-Sep-17 22:00N 30°04' W 093°30'1 2.0
2017-Sep-17 21:30N 30°04' W 093°29'0 0.7
2017-Sep-17 20:59N 30°04' W 093°29'0 0.3
2017-Sep-17 20:30N 30°04' W 093°29'0 0.3
2017-Sep-17 20:00N 30°04' W 093°29'0 0.0
2017-Sep-17 19:20N 30°04' W 093°29'0 0.0
2017-Sep-17 18:51N 30°04' W 093°29'0 0.0
2017-Sep-17 18:26N 30°04' W 093°28'2 3.6
2017-Sep-17 18:00N 30°04' W 093°30'27 1.8
2017-Sep-17 02:40N 29°44' W 093°52'0 0.0
2017-Sep-17 02:30N 29°44' W 093°52'1 0.3
2017-Sep-17 00:26N 29°44' W 093°52'21 0.6
2017-Sep-15 11:24N 30°03' W 093°43'1 2.6
2017-Sep-15 11:00N 30°04' W 093°41'1 2.1
2017-Sep-15 10:30N 30°04' W 093°40'1 2.3
2017-Sep-15 10:00N 30°04' W 093°39'1 2.6
2017-Sep-15 09:30N 30°04' W 093°37'1 2.2
2017-Sep-15 09:00N 30°04' W 093°36'1 2.2
2017-Sep-15 08:30N 30°04' W 093°35'1 2.2
2017-Sep-15 08:00N 30°04' W 093°33'1 2.2
2017-Sep-15 07:31N 30°04' W 093°32'1 2.2
2017-Sep-15 07:01N 30°04' W 093°31'1 2.3
2017-Sep-15 06:30N 30°04' W 093°30'1 2.2
2017-Sep-15 06:00N 30°04' W 093°28'1 2.2
2017-Sep-15 05:30N 30°04' W 093°27'1 2.2
2017-Sep-15 05:00N 30°04' W 093°26'1 2.2
2017-Sep-15 04:30N 30°04' W 093°24'1 2.2
2017-Sep-15 04:00N 30°04' W 093°23'1 1.9
2017-Sep-15 03:30N 30°04' W 093°22'1 1.7
2017-Sep-15 03:00N 30°04' W 093°21'1 1.5
2017-Sep-15 02:30N 30°04' W 093°21'1 1.4
2017-Sep-15 02:00N 30°05' W 093°20'1 2.4
2017-Sep-15 01:30N 30°06' W 093°20'2 3.2
2017-Sep-15 01:00N 30°08' W 093°20'2 3.5
2017-Sep-15 00:30N 30°09' W 093°20'2 3.3
2017-Sep-15 00:00N 30°11' W 093°19'1 1.9
2017-Sep-14 23:30N 30°11' W 093°18'3 5.8
2017-Sep-14 23:00N 30°13' W 093°16'0 0.9
2017-Sep-14 22:30N 30°14' W 093°15'0 0.0
2017-Sep-14 22:00N 30°14' W 093°15'0 0.0
2017-Sep-14 21:30N 30°14' W 093°15'0 0.0
2017-Sep-14 21:00N 30°14' W 093°15'0 0.0
2017-Sep-14 20:30N 30°14' W 093°15'0 0.0
2017-Sep-14 20:00N 30°14' W 093°15'0 0.0
2017-Sep-14 19:30N 30°14' W 093°15'0 0.0
2017-Sep-14 19:00N 30°14' W 093°15'1 1.8
2017-Sep-14 18:30N 30°13' W 093°16'4 7.5
2017-Sep-14 18:00N 30°11' W 093°19'0 0.2
2017-Sep-14 17:30N 30°10' W 093°19'1 2.0
2017-Sep-14 17:00N 30°11' W 093°18'1 1.6
2017-Sep-14 16:30N 30°12' W 093°18'1 1.7
2017-Sep-14 16:00N 30°12' W 093°17'1 2.3
2017-Sep-14 15:30N 30°13' W 093°16'1 1.1
2017-Sep-14 15:00N 30°13' W 093°16'0 0.4
2017-Sep-14 14:30N 30°13' W 093°16'0 0.4
2017-Sep-14 14:00N 30°13' W 093°15'0 0.1
2017-Sep-14 13:30N 30°13' W 093°15'0 0.3
2017-Sep-14 12:56N 30°14' W 093°15'0 0.1
2017-Sep-14 12:29N 30°14' W 093°15'0 0.1
2017-Sep-14 12:01N 30°14' W 093°15'0 0.0
2017-Sep-14 11:30N 30°14' W 093°15'0 0.0
2017-Sep-14 11:00N 30°14' W 093°15'0 0.0
2017-Sep-14 10:30N 30°14' W 093°15'0 0.0
2017-Sep-14 10:01N 30°14' W 093°15'0 0.0
2017-Sep-14 09:29N 30°14' W 093°15'0 0.0
2017-Sep-14 09:00N 30°14' W 093°15'0 0.0
2017-Sep-14 08:30N 30°14' W 093°15'0 0.0
2017-Sep-14 08:00N 30°14' W 093°15'0 0.0
2017-Sep-14 07:30N 30°14' W 093°15'0 0.0
2017-Sep-14 07:01N 30°14' W 093°15'0 0.0
2017-Sep-14 06:30N 30°14' W 093°15'0 0.0
2017-Sep-14 06:00N 30°14' W 093°15'0 0.0
2017-Sep-14 05:30N 30°14' W 093°15'0 0.0
2017-Sep-14 05:00N 30°14' W 093°15'0 0.0
2017-Sep-14 04:30N 30°14' W 093°15'0 0.0
2017-Sep-14 04:01N 30°14' W 093°15'0 0.0
2017-Sep-14 03:31N 30°14' W 093°15'0 0.0
2017-Sep-14 03:01N 30°14' W 093°15'2 3.1
2017-Sep-14 02:30N 30°12' W 093°16'1 2.8
2017-Sep-14 02:00N 30°12' W 093°18'1 2.8
2017-Sep-14 01:30N 30°11' W 093°19'1 2.6
2017-Sep-14 01:00N 30°10' W 093°19'1 2.4
2017-Sep-14 00:30N 30°08' W 093°20'1 2.5
2017-Sep-14 00:01N 30°07' W 093°20'1 2.8
2017-Sep-13 23:30N 30°06' W 093°20'1 2.7
2017-Sep-13 23:01N 30°06' W 093°18'1 1.9
2017-Sep-13 22:30N 30°05' W 093°17'1 1.2
2017-Sep-13 22:00N 30°05' W 093°17'0 0.0
2017-Sep-13 21:30N 30°05' W 093°17'2 4.8
2017-Sep-13 21:00N 30°06' W 093°19'1 2.2
2017-Sep-13 20:31N 30°05' W 093°18'1 1.2
2017-Sep-13 20:01N 30°05' W 093°17'1 2.1
2017-Sep-13 19:30N 30°04' W 093°16'0 0.0
2017-Sep-13 19:01N 30°04' W 093°16'0 0.0
2017-Sep-13 18:31N 30°04' W 093°16'1 1.5
2017-Sep-13 18:00N 30°04' W 093°16'2 3.2
2017-Sep-13 17:30N 30°05' W 093°17'2 3.8
2017-Sep-13 17:01N 30°06' W 093°19'1 2.3
2017-Sep-13 16:30N 30°05' W 093°18'0 0.8
2017-Sep-13 16:00N 30°05' W 093°17'1 1.2
2017-Sep-13 15:30N 30°05' W 093°17'1 1.6
2017-Sep-13 15:00N 30°04' W 093°16'0 0.8
2017-Sep-13 14:30N 30°04' W 093°16'3 5.3
2017-Sep-13 14:01N 30°06' W 093°18'1 1.3
2017-Sep-13 13:31N 30°06' W 093°18'2 3.9
2017-Sep-13 13:01N 30°08' W 093°20'4 7.1
2017-Sep-13 12:30N 30°11' W 093°18'4 7.1
2017-Sep-13 12:00N 30°14' W 093°15'0 0.1
2017-Sep-13 11:30N 30°14' W 093°15'0 0.0
2017-Sep-13 11:01N 30°14' W 093°15'0 0.0
2017-Sep-13 10:31N 30°14' W 093°15'0 0.0
2017-Sep-13 10:01N 30°14' W 093°15'0 0.0
2017-Sep-13 09:30N 30°14' W 093°15'0 0.0
2017-Sep-13 09:00N 30°14' W 093°15'0 0.0
2017-Sep-13 08:30N 30°14' W 093°15'0 0.0
2017-Sep-13 08:01N 30°14' W 093°15'0 0.0
2017-Sep-13 07:30N 30°14' W 093°15'0 0.0
2017-Sep-13 07:00N 30°14' W 093°15'0 0.0
2017-Sep-13 06:30N 30°14' W 093°15'0 0.0
2017-Sep-13 06:00N 30°14' W 093°15'0 0.0
2017-Sep-13 05:30N 30°14' W 093°15'0 0.0
2017-Sep-13 05:00N 30°14' W 093°15'0 0.0
2017-Sep-13 04:31N 30°14' W 093°15'0 0.0
2017-Sep-13 04:00N 30°14' W 093°15'0 0.0
2017-Sep-13 03:30N 30°14' W 093°15'0 0.0
2017-Sep-13 03:00N 30°14' W 093°15'0 0.0
2017-Sep-13 02:30N 30°14' W 093°15'0 0.0
2017-Sep-13 02:00N 30°14' W 093°15'0 0.0
2017-Sep-13 01:31N 30°14' W 093°15'0 0.0
2017-Sep-13 01:01N 30°14' W 093°15'0 0.0
2017-Sep-13 00:30N 30°14' W 093°15'0 0.0
2017-Sep-13 00:00N 30°14' W 093°15'0 0.0
2017-Sep-12 23:30N 30°14' W 093°15'0 0.0
2017-Sep-12 23:00N 30°14' W 093°15'0 0.0
2017-Sep-12 22:30N 30°14' W 093°15'0 0.0
2017-Sep-12 22:00N 30°14' W 093°15'0 0.0
2017-Sep-12 21:30N 30°14' W 093°15'0 0.0
2017-Sep-12 21:00N 30°14' W 093°15'0 0.0
2017-Sep-12 20:30N 30°14' W 093°15'0 0.0
2017-Sep-12 20:00N 30°14' W 093°15'0 0.0
2017-Sep-12 19:30N 30°14' W 093°15'0 0.0
2017-Sep-12 19:00N 30°14' W 093°15'0 0.0
2017-Sep-12 18:31N 30°14' W 093°15'0 0.0
2017-Sep-12 18:00N 30°14' W 093°15'0 0.0
2017-Sep-12 17:30N 30°14' W 093°15'0 0.0
2017-Sep-12 17:01N 30°14' W 093°15'0 0.0
2017-Sep-12 16:30N 30°14' W 093°15'0 0.0
2017-Sep-12 16:00N 30°14' W 093°15'0 0.0
2017-Sep-12 15:30N 30°14' W 093°15'0 0.0
2017-Sep-12 15:00N 30°14' W 093°15'0 0.0
2017-Sep-12 14:31N 30°14' W 093°15'0 0.0
2017-Sep-12 14:00N 30°14' W 093°15'0 0.0
2017-Sep-12 06:19N 30°14' W 093°15'0 0.0
2017-Sep-12 06:00N 30°14' W 093°15'0 0.0
2017-Sep-12 05:29N 30°14' W 093°15'0 0.0
2017-Sep-12 05:00N 30°14' W 093°15'0 0.0
2017-Sep-12 04:30N 30°14' W 093°15'0 0.0
2017-Sep-12 04:00N 30°14' W 093°15'0 0.0
2017-Sep-12 03:30N 30°14' W 093°15'0 0.0
2017-Sep-12 03:01N 30°14' W 093°15'0 0.0
2017-Sep-12 02:30N 30°14' W 093°15'0 0.0
2017-Sep-12 02:01N 30°14' W 093°15'0 0.0
2017-Sep-12 01:30N 30°14' W 093°15'0 0.0
2017-Sep-12 01:00N 30°14' W 093°15'0 0.0
2017-Sep-12 00:30N 30°14' W 093°15'0 0.0
2017-Sep-12 00:00N 30°14' W 093°15'0 0.0
2017-Sep-11 23:30N 30°14' W 093°15'0 0.0
2017-Sep-11 23:00N 30°14' W 093°15'0 0.0
2017-Sep-11 22:31N 30°14' W 093°15'0 0.0
2017-Sep-11 22:00N 30°14' W 093°15'0 0.0
2017-Sep-11 21:30N 30°14' W 093°15'0 0.0
2017-Sep-11 21:00N 30°14' W 093°15'0 0.0
2017-Sep-11 20:30N 30°14' W 093°15'0 0.0
2017-Sep-11 20:01N 30°14' W 093°15'0 0.0
2017-Sep-11 19:30N 30°14' W 093°15'0 0.0
2017-Sep-11 18:57N 30°14' W 093°15'0 0.0
2017-Sep-11 18:30N 30°14' W 093°15'0 0.0
2017-Sep-11 18:00N 30°14' W 093°15'0 0.0
2017-Sep-11 17:30N 30°14' W 093°15'0 0.0
2017-Sep-11 17:00N 30°14' W 093°15'0 0.0
2017-Sep-11 16:28N 30°14' W 093°15'0 0.0
2017-Sep-11 16:00N 30°14' W 093°15'0 0.0
2017-Sep-11 15:30N 30°14' W 093°15'0 0.0
2017-Sep-11 14:52N 30°14' W 093°15'0 0.2
2017-Sep-11 14:30N 30°14' W 093°15'2 4.4
2017-Sep-11 14:01N 30°12' W 093°17'3 5.6
2017-Sep-11 13:28N 30°10' W 093°19'5 3.7
2017-Sep-11 12:01N 30°14' W 093°15'0 0.0
2017-Sep-11 12:00N 30°14' W 093°15'0 0.0
2017-Sep-11 11:28N 30°14' W 093°15'0 0.0
2017-Sep-11 11:00N 30°14' W 093°15'0 0.0
2017-Sep-11 10:30N 30°14' W 093°15'0 0.0
2017-Sep-11 09:57N 30°14' W 093°15'0 0.0
2017-Sep-11 09:30N 30°14' W 093°15'0 0.0
2017-Sep-11 09:00N 30°14' W 093°15'0 0.0
2017-Sep-11 08:28N 30°14' W 093°15'0 0.0
2017-Sep-11 08:01N 30°14' W 093°15'0 0.0
2017-Sep-11 07:29N 30°14' W 093°15'0 0.0
2017-Sep-11 06:37N 30°14' W 093°15'0 0.0
2017-Sep-11 06:19N 30°14' W 093°15'0 0.0
2017-Sep-11 05:56N 30°14' W 093°15'0 0.0
2017-Sep-11 05:29N 30°14' W 093°15'0 0.0
2017-Sep-11 05:00N 30°14' W 093°15'0 0.0
2017-Sep-11 04:28N 30°14' W 093°15'0 0.0
2017-Sep-11 04:00N 30°14' W 093°15'0 0.0
2017-Sep-11 03:29N 30°14' W 093°15'0 0.0
2017-Sep-11 02:55N 30°14' W 093°15'0 0.0
2017-Sep-11 02:30N 30°14' W 093°15'0 0.0
2017-Sep-11 01:57N 30°14' W 093°15'0 0.0
2017-Sep-11 01:30N 30°14' W 093°15'0 0.0
2017-Sep-11 01:00N 30°14' W 093°15'0 0.0
2017-Sep-11 00:30N 30°14' W 093°15'0 0.0
2017-Sep-11 00:00N 30°14' W 093°15'0 0.0
2017-Sep-10 23:30N 30°14' W 093°15'0 0.0
2017-Sep-10 23:00N 30°14' W 093°15'0 0.0
2017-Sep-10 22:30N 30°14' W 093°15'0 0.0
2017-Sep-10 22:00N 30°14' W 093°15'0 0.0
2017-Sep-10 21:30N 30°14' W 093°15'0 0.0
2017-Sep-10 21:00N 30°14' W 093°15'0 0.0
2017-Sep-10 20:30N 30°14' W 093°15'0 0.0
2017-Sep-10 20:01N 30°14' W 093°15'0 0.0
2017-Sep-10 19:31N 30°14' W 093°15'0 0.0
2017-Sep-10 19:00N 30°14' W 093°15'0 0.0
2017-Sep-10 18:30N 30°14' W 093°15'0 0.0
2017-Sep-10 18:00N 30°14' W 093°15'0 0.0
2017-Sep-10 17:30N 30°14' W 093°15'0 0.0
2017-Sep-10 17:00N 30°14' W 093°15'0 0.0
2017-Sep-10 16:30N 30°14' W 093°15'0 0.0
2017-Sep-10 16:00N 30°14' W 093°15'0 0.0
2017-Sep-10 15:30N 30°14' W 093°15'0 0.0
2017-Sep-10 15:00N 30°14' W 093°15'0 0.0
2017-Sep-10 14:00N 30°14' W 093°15'0 0.0
2017-Sep-10 12:50N 30°14' W 093°15'0 0.0
2017-Sep-10 12:30N 30°14' W 093°15'0 0.0
2017-Sep-10 11:57N 30°14' W 093°15'0 0.0
2017-Sep-10 10:17N 30°14' W 093°15'0 0.0
2017-Sep-10 10:01N 30°14' W 093°15'0 0.0
2017-Sep-10 09:30N 30°14' W 093°15'0 0.0
2017-Sep-10 09:00N 30°14' W 093°15'0 0.0
2017-Sep-10 08:30N 30°14' W 093°15'0 0.0
2017-Sep-10 07:58N 30°14' W 093°15'0 0.0
2017-Sep-10 07:30N 30°14' W 093°15'0 0.0
2017-Sep-10 07:00N 30°14' W 093°15'0 0.0
2017-Sep-10 06:30N 30°14' W 093°15'0 0.0
2017-Sep-10 06:00N 30°14' W 093°15'0 0.0
2017-Sep-10 05:28N 30°14' W 093°15'0 0.0
2017-Sep-10 05:00N 30°14' W 093°15'0 0.0
2017-Sep-10 04:30N 30°14' W 093°15'0 0.0
2017-Sep-10 04:00N 30°14' W 093°15'0 0.0
2017-Sep-10 03:30N 30°14' W 093°15'0 0.0
2017-Sep-10 03:00N 30°14' W 093°15'0 0.0
2017-Sep-10 02:30N 30°14' W 093°15'0 0.0
2017-Sep-10 02:01N 30°14' W 093°15'0 0.0
2017-Sep-10 01:30N 30°14' W 093°15'0 0.0
2017-Sep-10 01:00N 30°14' W 093°15'0 0.0
2017-Sep-10 00:30N 30°14' W 093°15'0 0.0
2017-Sep-10 00:00N 30°14' W 093°15'0 0.0
2017-Sep-09 23:30N 30°14' W 093°15'0 0.0
2017-Sep-09 23:00N 30°14' W 093°15'0 0.0
2017-Sep-09 22:30N 30°14' W 093°15'0 0.0
2017-Sep-09 22:00N 30°14' W 093°15'0 0.0
2017-Sep-09 21:30N 30°14' W 093°15'0 0.0
2017-Sep-09 21:00N 30°14' W 093°15'0 0.0
2017-Sep-09 20:30N 30°14' W 093°15'0 0.0
2017-Sep-09 20:00N 30°14' W 093°15'0 0.0
2017-Sep-09 19:30N 30°14' W 093°15'0 0.0
2017-Sep-09 19:00N 30°14' W 093°15'0 0.0
2017-Sep-09 18:30N 30°14' W 093°15'0 0.0
2017-Sep-09 18:00N 30°14' W 093°15'0 0.0
2017-Sep-09 17:30N 30°14' W 093°15'0 0.0
2017-Sep-09 17:00N 30°14' W 093°15'0 0.0
2017-Sep-09 16:31N 30°14' W 093°15'0 0.0
2017-Sep-09 16:01N 30°14' W 093°15'0 0.0
2017-Sep-09 15:30N 30°14' W 093°15'0 0.0
2017-Sep-09 15:00N 30°14' W 093°15'0 0.0
2017-Sep-09 14:29N 30°14' W 093°15'0 0.0
2017-Sep-09 13:58N 30°14' W 093°15'0 0.0
2017-Sep-09 13:03N 30°14' W 093°15'0 0.0
2017-Sep-09 12:59N 30°14' W 093°15'0 0.0
2017-Sep-09 12:30N 30°14' W 093°15'0 0.0
2017-Sep-09 12:00N 30°14' W 093°15'0 0.0
2017-Sep-09 11:29N 30°14' W 093°15'0 0.0
2017-Sep-09 10:57N 30°14' W 093°15'0 0.0
2017-Sep-09 10:25N 30°14' W 093°15'0 0.0
2017-Sep-09 09:58N 30°14' W 093°15'0 0.0
2017-Sep-09 09:30N 30°14' W 093°15'0 0.0
2017-Sep-09 08:58N 30°14' W 093°15'0 0.0
2017-Sep-09 08:30N 30°14' W 093°15'0 0.0
2017-Sep-09 07:59N 30°14' W 093°15'0 0.0
2017-Sep-09 07:30N 30°14' W 093°15'0 0.0
2017-Sep-09 07:00N 30°14' W 093°15'0 0.0
2017-Sep-09 06:30N 30°14' W 093°15'0 0.0
2017-Sep-09 04:29N 30°14' W 093°15'0 0.0
2017-Sep-09 03:50N 30°14' W 093°15'0 0.0
2017-Sep-09 03:10N 30°14' W 093°15'0 0.0
2017-Sep-09 03:00N 30°14' W 093°15'0 0.0
2017-Sep-09 02:22N 30°14' W 093°15'0 0.0
2017-Sep-09 02:00N 30°14' W 093°15'0 0.0
2017-Sep-09 01:21N 30°14' W 093°15'0 0.0
2017-Sep-09 01:00N 30°14' W 093°15'0 0.0
2017-Sep-09 00:31N 30°14' W 093°15'0 0.0
2017-Sep-09 00:00N 30°14' W 093°15'0 0.0
2017-Sep-08 23:30N 30°14' W 093°15'0 0.0
2017-Sep-08 23:00N 30°14' W 093°15'0 0.0
2017-Sep-08 22:30N 30°14' W 093°15'0 0.0
2017-Sep-08 21:57N 30°14' W 093°15'0 0.0
2017-Sep-08 21:30N 30°14' W 093°15'0 0.0
2017-Sep-08 21:00N 30°14' W 093°15'0 0.0
2017-Sep-08 18:12N 30°14' W 093°15'0 0.0
2017-Sep-08 18:00N 30°14' W 093°15'0 0.0
2017-Sep-08 17:30N 30°14' W 093°15'0 0.0
2017-Sep-08 17:00N 30°14' W 093°15'0 0.0
2017-Sep-08 16:28N 30°14' W 093°15'0 0.0
2017-Sep-08 16:00N 30°14' W 093°15'0 0.0
2017-Sep-08 15:30N 30°14' W 093°15'0 0.0
2017-Sep-08 15:00N 30°14' W 093°15'0 0.0
2017-Sep-08 14:24N 30°14' W 093°15'0 0.0
2017-Sep-08 14:00N 30°14' W 093°15'0 0.0
2017-Sep-08 13:30N 30°14' W 093°15'0 0.0
2017-Sep-08 13:00N 30°14' W 093°15'0 0.0
2017-Sep-08 12:30N 30°14' W 093°15'0 0.0
2017-Sep-08 12:00N 30°14' W 093°15'0 0.0
2017-Sep-08 11:27N 30°14' W 093°15'0 0.0
2017-Sep-08 09:54N 30°14' W 093°15'0 0.0
2017-Sep-08 08:49N 30°14' W 093°15'0 0.0
2017-Sep-08 08:18N 30°14' W 093°15'0 0.0
2017-Sep-08 07:55N 30°14' W 093°15'0 0.0
2017-Sep-08 07:30N 30°14' W 093°15'0 0.0
2017-Sep-08 06:44N 30°14' W 093°15'0 0.0
2017-Sep-08 06:09N 30°14' W 093°15'0 0.0
2017-Sep-08 04:57N 30°14' W 093°15'0 0.0
2017-Sep-08 03:06N 30°14' W 093°15'0 0.0
2017-Sep-08 02:38N 30°14' W 093°15'0 0.0
2017-Sep-08 02:17N 30°14' W 093°15'  
Track history (hours):
 
Tides and Currents Weather Stations Pressure Air Temp Water Temp Dewpoint Dewpoint Depression Visibility Wind Speed Wind Dir Waves Ship Positions

God

Owner: Quality tug services LLC, broussard, LA. More information available from US FCC via Universal Licensing System and Coast Guard Vessel Documentation Center.

Last reported at 2017-Sep-18 02:15 UTC. Time now 2017-Sep-23 03:35 UTC.
Position N 30°03' W 093°43'.

Length 18 m; draft 3 m.

Type: Towing. MMSI: 367603820.

Date/timePositionNaut miles runAvg speedWind from/ knotsBaromVisibWave heightAir tempDewpointWater temp
2017-Sep-18 02:15N 30°03' W 093°43'1 3.2
2017-Sep-18 01:53N 30°04' W 093°41'1 3.0
2017-Sep-18 01:30N 30°04' W 093°40'1 2.8
2017-Sep-18 01:00N 30°04' W 093°38'1 2.6
2017-Sep-18 00:30N 30°04' W 093°37'1 2.5
2017-Sep-18 00:00N 30°04' W 093°35'1 2.6
2017-Sep-17 23:30N 30°04' W 093°34'1 2.0
2017-Sep-17 23:00N 30°04' W 093°33'1 2.3
2017-Sep-17 22:30N 30°04' W 093°31'1 2.3
2017-Sep-17 22:00N 30°04' W 093°30'1 2.0
2017-Sep-17 21:30N 30°04' W 093°29'0 0.7
2017-Sep-17 20:59N 30°04' W 093°29'0 0.3
2017-Sep-17 20:30N 30°04' W 093°29'0 0.3
2017-Sep-17 20:00N 30°04' W 093°29'0 0.0
2017-Sep-17 19:20N 30°04' W 093°29'0 0.0
2017-Sep-17 18:51N 30°04' W 093°29'0 0.0
2017-Sep-17 18:26N 30°04' W 093°28'2 3.6
2017-Sep-17 18:00N 30°04' W 093°30'27 1.8
2017-Sep-17 02:40N 29°44' W 093°52'0 0.0
2017-Sep-17 02:30N 29°44' W 093°52'1 0.3
2017-Sep-17 00:26N 29°44' W 093°52'21 0.6
2017-Sep-15 11:24N 30°03' W 093°43'1 2.6
2017-Sep-15 11:00N 30°04' W 093°41'1 2.1
2017-Sep-15 10:30N 30°04' W 093°40'1 2.3
2017-Sep-15 10:00N 30°04' W 093°39'1 2.6
2017-Sep-15 09:30N 30°04' W 093°37'1 2.2
2017-Sep-15 09:00N 30°04' W 093°36'1 2.2
2017-Sep-15 08:30N 30°04' W 093°35'1 2.2
2017-Sep-15 08:00N 30°04' W 093°33'1 2.2
2017-Sep-15 07:31N 30°04' W 093°32'1 2.2
2017-Sep-15 07:01N 30°04' W 093°31'1 2.3
2017-Sep-15 06:30N 30°04' W 093°30'1 2.2
2017-Sep-15 06:00N 30°04' W 093°28'1 2.2
2017-Sep-15 05:30N 30°04' W 093°27'1 2.2
2017-Sep-15 05:00N 30°04' W 093°26'1 2.2
2017-Sep-15 04:30N 30°04' W 093°24'1 2.2
2017-Sep-15 04:00N 30°04' W 093°23'1 1.9
2017-Sep-15 03:30N 30°04' W 093°22'1 1.7
2017-Sep-15 03:00N 30°04' W 093°21'1 1.5
2017-Sep-15 02:30N 30°04' W 093°21'1 1.4
2017-Sep-15 02:00N 30°05' W 093°20'1 2.4
2017-Sep-15 01:30N 30°06' W 093°20'2 3.2
2017-Sep-15 01:00N 30°08' W 093°20'2 3.5
2017-Sep-15 00:30N 30°09' W 093°20'2 3.3
2017-Sep-15 00:00N 30°11' W 093°19'1 1.9
2017-Sep-14 23:30N 30°11' W 093°18'3 5.8
2017-Sep-14 23:00N 30°13' W 093°16'0 0.9
2017-Sep-14 22:30N 30°14' W 093°15'0 0.0
2017-Sep-14 22:00N 30°14' W 093°15'0 0.0
2017-Sep-14 21:30N 30°14' W 093°15'0 0.0
2017-Sep-14 21:00N 30°14' W 093°15'0 0.0
2017-Sep-14 20:30N 30°14' W 093°15'0 0.0
2017-Sep-14 20:00N 30°14' W 093°15'0 0.0
2017-Sep-14 19:30N 30°14' W 093°15'0 0.0
2017-Sep-14 19:00N 30°14' W 093°15'1 1.8
2017-Sep-14 18:30N 30°13' W 093°16'4 7.5
2017-Sep-14 18:00N 30°11' W 093°19'0 0.2
2017-Sep-14 17:30N 30°10' W 093°19'1 2.0
2017-Sep-14 17:00N 30°11' W 093°18'1 1.6
2017-Sep-14 16:30N 30°12' W 093°18'1 1.7
2017-Sep-14 16:00N 30°12' W 093°17'1 2.3
2017-Sep-14 15:30N 30°13' W 093°16'1 1.1
2017-Sep-14 15:00N 30°13' W 093°16'0 0.4
2017-Sep-14 14:30N 30°13' W 093°16'0 0.4
2017-Sep-14 14:00N 30°13' W 093°15'0 0.1
2017-Sep-14 13:30N 30°13' W 093°15'0 0.3
2017-Sep-14 12:56N 30°14' W 093°15'0 0.1
2017-Sep-14 12:29N 30°14' W 093°15'0 0.1
2017-Sep-14 12:01N 30°14' W 093°15'0 0.0
2017-Sep-14 11:30N 30°14' W 093°15'0 0.0
2017-Sep-14 11:00N 30°14' W 093°15'0 0.0
2017-Sep-14 10:30N 30°14' W 093°15'0 0.0
2017-Sep-14 10:01N 30°14' W 093°15'0 0.0
2017-Sep-14 09:29N 30°14' W 093°15'0 0.0
2017-Sep-14 09:00N 30°14' W 093°15'0 0.0
2017-Sep-14 08:30N 30°14' W 093°15'0 0.0
2017-Sep-14 08:00N 30°14' W 093°15'0 0.0
2017-Sep-14 07:30N 30°14' W 093°15'0 0.0
2017-Sep-14 07:01N 30°14' W 093°15'0 0.0
2017-Sep-14 06:30N 30°14' W 093°15'0 0.0
2017-Sep-14 06:00N 30°14' W 093°15'0 0.0
2017-Sep-14 05:30N 30°14' W 093°15'0 0.0
2017-Sep-14 05:00N 30°14' W 093°15'0 0.0
2017-Sep-14 04:30N 30°14' W 093°15'0 0.0
2017-Sep-14 04:01N 30°14' W 093°15'0 0.0
2017-Sep-14 03:31N 30°14' W 093°15'0 0.0
2017-Sep-14 03:01N 30°14' W 093°15'2 3.1
2017-Sep-14 02:30N 30°12' W 093°16'1 2.8
2017-Sep-14 02:00N 30°12' W 093°18'1 2.8
2017-Sep-14 01:30N 30°11' W 093°19'1 2.6
2017-Sep-14 01:00N 30°10' W 093°19'1 2.4
2017-Sep-14 00:30N 30°08' W 093°20'1 2.5
2017-Sep-14 00:01N 30°07' W 093°20'1 2.8
2017-Sep-13 23:30N 30°06' W 093°20'1 2.7
2017-Sep-13 23:01N 30°06' W 093°18'1 1.9
2017-Sep-13 22:30N 30°05' W 093°17'1 1.2
2017-Sep-13 22:00N 30°05' W 093°17'0 0.0
2017-Sep-13 21:30N 30°05' W 093°17'2 4.8
2017-Sep-13 21:00N 30°06' W 093°19'1 2.2
2017-Sep-13 20:31N 30°05' W 093°18'1 1.2
2017-Sep-13 20:01N 30°05' W 093°17'1 2.1
2017-Sep-13 19:30N 30°04' W 093°16'0 0.0
2017-Sep-13 19:01N 30°04' W 093°16'0 0.0
2017-Sep-13 18:31N 30°04' W 093°16'1 1.5
2017-Sep-13 18:00N 30°04' W 093°16'2 3.2
2017-Sep-13 17:30N 30°05' W 093°17'2 3.8
2017-Sep-13 17:01N 30°06' W 093°19'1 2.3
2017-Sep-13 16:30N 30°05' W 093°18'0 0.8
2017-Sep-13 16:00N 30°05' W 093°17'1 1.2
2017-Sep-13 15:30N 30°05' W 093°17'1 1.6
2017-Sep-13 15:00N 30°04' W 093°16'0 0.8
2017-Sep-13 14:30N 30°04' W 093°16'3 5.3
2017-Sep-13 14:01N 30°06' W 093°18'1 1.3
2017-Sep-13 13:31N 30°06' W 093°18'2 3.9
2017-Sep-13 13:01N 30°08' W 093°20'4 7.1
2017-Sep-13 12:30N 30°11' W 093°18'4 7.1
2017-Sep-13 12:00N 30°14' W 093°15'0 0.1
2017-Sep-13 11:30N 30°14' W 093°15'0 0.0
2017-Sep-13 11:01N 30°14' W 093°15'0 0.0
2017-Sep-13 10:31N 30°14' W 093°15'0 0.0
2017-Sep-13 10:01N 30°14' W 093°15'0 0.0
2017-Sep-13 09:30N 30°14' W 093°15'0 0.0
2017-Sep-13 09:00N 30°14' W 093°15'0 0.0
2017-Sep-13 08:30N 30°14' W 093°15'0 0.0
2017-Sep-13 08:01N 30°14' W 093°15'0 0.0
2017-Sep-13 07:30N 30°14' W 093°15'0 0.0
2017-Sep-13 07:00N 30°14' W 093°15'0 0.0
2017-Sep-13 06:30N 30°14' W 093°15'0 0.0
2017-Sep-13 06:00N 30°14' W 093°15'0 0.0
2017-Sep-13 05:30N 30°14' W 093°15'0 0.0
2017-Sep-13 05:00N 30°14' W 093°15'0 0.0
2017-Sep-13 04:31N 30°14' W 093°15'0 0.0
2017-Sep-13 04:00N 30°14' W 093°15'0 0.0
2017-Sep-13 03:30N 30°14' W 093°15'0 0.0
2017-Sep-13 03:00N 30°14' W 093°15'0 0.0
2017-Sep-13 02:30N 30°14' W 093°15'0 0.0
2017-Sep-13 02:00N 30°14' W 093°15'0 0.0
2017-Sep-13 01:31N 30°14' W 093°15'0 0.0
2017-Sep-13 01:01N 30°14' W 093°15'0 0.0
2017-Sep-13 00:30N 30°14' W 093°15'0 0.0
2017-Sep-13 00:00N 30°14' W 093°15'0 0.0
2017-Sep-12 23:30N 30°14' W 093°15'0 0.0
2017-Sep-12 23:00N 30°14' W 093°15'0 0.0
2017-Sep-12 22:30N 30°14' W 093°15'0 0.0
2017-Sep-12 22:00N 30°14' W 093°15'0 0.0
2017-Sep-12 21:30N 30°14' W 093°15'0 0.0
2017-Sep-12 21:00N 30°14' W 093°15'0 0.0
2017-Sep-12 20:30N 30°14' W 093°15'0 0.0
2017-Sep-12 20:00N 30°14' W 093°15'0 0.0
2017-Sep-12 19:30N 30°14' W 093°15'0 0.0
2017-Sep-12 19:00N 30°14' W 093°15'0 0.0
2017-Sep-12 18:31N 30°14' W 093°15'0 0.0
2017-Sep-12 18:00N 30°14' W 093°15'0 0.0
2017-Sep-12 17:30N 30°14' W 093°15'0 0.0
2017-Sep-12 17:01N 30°14' W 093°15'0 0.0
2017-Sep-12 16:30N 30°14' W 093°15'0 0.0
2017-Sep-12 16:00N 30°14' W 093°15'0 0.0
2017-Sep-12 15:30N 30°14' W 093°15'0 0.0
2017-Sep-12 15:00N 30°14' W 093°15'0 0.0
2017-Sep-12 14:31N 30°14' W 093°15'0 0.0
2017-Sep-12 14:00N 30°14' W 093°15'0 0.0
2017-Sep-12 06:19N 30°14' W 093°15'0 0.0
2017-Sep-12 06:00N 30°14' W 093°15'0 0.0
2017-Sep-12 05:29N 30°14' W 093°15'0 0.0
2017-Sep-12 05:00N 30°14' W 093°15'0 0.0
2017-Sep-12 04:30N 30°14' W 093°15'0 0.0
2017-Sep-12 04:00N 30°14' W 093°15'0 0.0
2017-Sep-12 03:30N 30°14' W 093°15'0 0.0
2017-Sep-12 03:01N 30°14' W 093°15'0 0.0
2017-Sep-12 02:30N 30°14' W 093°15'0 0.0
2017-Sep-12 02:01N 30°14' W 093°15'0 0.0
2017-Sep-12 01:30N 30°14' W 093°15'0 0.0
2017-Sep-12 01:00N 30°14' W 093°15'0 0.0
2017-Sep-12 00:30N 30°14' W 093°15'0 0.0
2017-Sep-12 00:00N 30°14' W 093°15'0 0.0
2017-Sep-11 23:30N 30°14' W 093°15'0 0.0
2017-Sep-11 23:00N 30°14' W 093°15'0 0.0
2017-Sep-11 22:31N 30°14' W 093°15'0 0.0
2017-Sep-11 22:00N 30°14' W 093°15'0 0.0
2017-Sep-11 21:30N 30°14' W 093°15'0 0.0
2017-Sep-11 21:00N 30°14' W 093°15'0 0.0
2017-Sep-11 20:30N 30°14' W 093°15'0 0.0
2017-Sep-11 20:01N 30°14' W 093°15'0 0.0
2017-Sep-11 19:30N 30°14' W 093°15'0 0.0
2017-Sep-11 18:57N 30°14' W 093°15'0 0.0
2017-Sep-11 18:30N 30°14' W 093°15'0 0.0
2017-Sep-11 18:00N 30°14' W 093°15'0 0.0
2017-Sep-11 17:30N 30°14' W 093°15'0 0.0
2017-Sep-11 17:00N 30°14' W 093°15'0 0.0
2017-Sep-11 16:28N 30°14' W 093°15'0 0.0
2017-Sep-11 16:00N 30°14' W 093°15'0 0.0
2017-Sep-11 15:30N 30°14' W 093°15'0 0.0
2017-Sep-11 14:52N 30°14' W 093°15'0 0.2
2017-Sep-11 14:30N 30°14' W 093°15'2 4.4
2017-Sep-11 14:01N 30°12' W 093°17'3 5.6
2017-Sep-11 13:28N 30°10' W 093°19'5 3.7
2017-Sep-11 12:01N 30°14' W 093°15'0 0.0
2017-Sep-11 12:00N 30°14' W 093°15'0 0.0
2017-Sep-11 11:28N 30°14' W 093°15'0 0.0
2017-Sep-11 11:00N 30°14' W 093°15'0 0.0
2017-Sep-11 10:30N 30°14' W 093°15'0 0.0
2017-Sep-11 09:57N 30°14' W 093°15'0 0.0
2017-Sep-11 09:30N 30°14' W 093°15'0 0.0
2017-Sep-11 09:00N 30°14' W 093°15'0 0.0
2017-Sep-11 08:28N 30°14' W 093°15'0 0.0
2017-Sep-11 08:01N 30°14' W 093°15'0 0.0
2017-Sep-11 07:29N 30°14' W 093°15'0 0.0
2017-Sep-11 06:37N 30°14' W 093°15'0 0.0
2017-Sep-11 06:19N 30°14' W 093°15'0 0.0
2017-Sep-11 05:56N 30°14' W 093°15'0 0.0
2017-Sep-11 05:29N 30°14' W 093°15'0 0.0
2017-Sep-11 05:00N 30°14' W 093°15'0 0.0
2017-Sep-11 04:28N 30°14' W 093°15'0 0.0
2017-Sep-11 04:00N 30°14' W 093°15'0 0.0
2017-Sep-11 03:29N 30°14' W 093°15'0 0.0
2017-Sep-11 02:55N 30°14' W 093°15'0 0.0
2017-Sep-11 02:30N 30°14' W 093°15'0 0.0
2017-Sep-11 01:57N 30°14' W 093°15'0 0.0
2017-Sep-11 01:30N 30°14' W 093°15'0 0.0
2017-Sep-11 01:00N 30°14' W 093°15'0 0.0
2017-Sep-11 00:30N 30°14' W 093°15'0 0.0
2017-Sep-11 00:00N 30°14' W 093°15'0 0.0
2017-Sep-10 23:30N 30°14' W 093°15'0 0.0
2017-Sep-10 23:00N 30°14' W 093°15'0 0.0
2017-Sep-10 22:30N 30°14' W 093°15'0 0.0
2017-Sep-10 22:00N 30°14' W 093°15'0 0.0
2017-Sep-10 21:30N 30°14' W 093°15'0 0.0
2017-Sep-10 21:00N 30°14' W 093°15'0 0.0
2017-Sep-10 20:30N 30°14' W 093°15'0 0.0
2017-Sep-10 20:01N 30°14' W 093°15'0 0.0
2017-Sep-10 19:31N 30°14' W 093°15'0 0.0
2017-Sep-10 19:00N 30°14' W 093°15'0 0.0
2017-Sep-10 18:30N 30°14' W 093°15'0 0.0
2017-Sep-10 18:00N 30°14' W 093°15'0 0.0
2017-Sep-10 17:30N 30°14' W 093°15'0 0.0
2017-Sep-10 17:00N 30°14' W 093°15'0 0.0
2017-Sep-10 16:30N 30°14' W 093°15'0 0.0
2017-Sep-10 16:00N 30°14' W 093°15'0 0.0
2017-Sep-10 15:30N 30°14' W 093°15'0 0.0
2017-Sep-10 15:00N 30°14' W 093°15'0 0.0
2017-Sep-10 14:00N 30°14' W 093°15'0 0.0
2017-Sep-10 12:50N 30°14' W 093°15'0 0.0
2017-Sep-10 12:30N 30°14' W 093°15'0 0.0
2017-Sep-10 11:57N 30°14' W 093°15'0 0.0
2017-Sep-10 10:17N 30°14' W 093°15'0 0.0
2017-Sep-10 10:01N 30°14' W 093°15'0 0.0
2017-Sep-10 09:30N 30°14' W 093°15'0 0.0
2017-Sep-10 09:00N 30°14' W 093°15'0 0.0
2017-Sep-10 08:30N 30°14' W 093°15'0 0.0
2017-Sep-10 07:58N 30°14' W 093°15'0 0.0
2017-Sep-10 07:30N 30°14' W 093°15'0 0.0
2017-Sep-10 07:00N 30°14' W 093°15'0 0.0
2017-Sep-10 06:30N 30°14' W 093°15'0 0.0
2017-Sep-10 06:00N 30°14' W 093°15'0 0.0
2017-Sep-10 05:28N 30°14' W 093°15'0 0.0
2017-Sep-10 05:00N 30°14' W 093°15'0 0.0
2017-Sep-10 04:30N 30°14' W 093°15'0 0.0
2017-Sep-10 04:00N 30°14' W 093°15'0 0.0
2017-Sep-10 03:30N 30°14' W 093°15'0 0.0
2017-Sep-10 03:00N 30°14' W 093°15'0 0.0
2017-Sep-10 02:30N 30°14' W 093°15'0 0.0
2017-Sep-10 02:01N 30°14' W 093°15'0 0.0
2017-Sep-10 01:30N 30°14' W 093°15'0 0.0
2017-Sep-10 01:00N 30°14' W 093°15'0 0.0
2017-Sep-10 00:30N 30°14' W 093°15'0 0.0
2017-Sep-10 00:00N 30°14' W 093°15'0 0.0
2017-Sep-09 23:30N 30°14' W 093°15'0 0.0
2017-Sep-09 23:00N 30°14' W 093°15'0 0.0
2017-Sep-09 22:30N 30°14' W 093°15'0 0.0
2017-Sep-09 22:00N 30°14' W 093°15'0 0.0
2017-Sep-09 21:30N 30°14' W 093°15'0 0.0
2017-Sep-09 21:00N 30°14' W 093°15'0 0.0
2017-Sep-09 20:30N 30°14' W 093°15'0 0.0
2017-Sep-09 20:00N 30°14' W 093°15'0 0.0
2017-Sep-09 19:30N 30°14' W 093°15'0 0.0
2017-Sep-09 19:00N 30°14' W 093°15'0 0.0
2017-Sep-09 18:30N 30°14' W 093°15'0 0.0
2017-Sep-09 18:00N 30°14' W 093°15'0 0.0
2017-Sep-09 17:30N 30°14' W 093°15'0 0.0
2017-Sep-09 17:00N 30°14' W 093°15'0 0.0
2017-Sep-09 16:31N 30°14' W 093°15'0 0.0
2017-Sep-09 16:01N 30°14' W 093°15'0 0.0
2017-Sep-09 15:30N 30°14' W 093°15'0 0.0
2017-Sep-09 15:00N 30°14' W 093°15'0 0.0
2017-Sep-09 14:29N 30°14' W 093°15'0 0.0
2017-Sep-09 13:58N 30°14' W 093°15'0 0.0
2017-Sep-09 13:03N 30°14' W 093°15'0 0.0
2017-Sep-09 12:59N 30°14' W 093°15'0 0.0
2017-Sep-09 12:30N 30°14' W 093°15'0 0.0
2017-Sep-09 12:00N 30°14' W 093°15'0 0.0
2017-Sep-09 11:29N 30°14' W 093°15'0 0.0
2017-Sep-09 10:57N 30°14' W 093°15'0 0.0
2017-Sep-09 10:25N 30°14' W 093°15'0 0.0
2017-Sep-09 09:58N 30°14' W 093°15'0 0.0
2017-Sep-09 09:30N 30°14' W 093°15'0 0.0
2017-Sep-09 08:58N 30°14' W 093°15'0 0.0
2017-Sep-09 08:30N 30°14' W 093°15'0 0.0
2017-Sep-09 07:59N 30°14' W 093°15'0 0.0
2017-Sep-09 07:30N 30°14' W 093°15'0 0.0
2017-Sep-09 07:00N 30°14' W 093°15'0 0.0
2017-Sep-09 06:30N 30°14' W 093°15'0 0.0
2017-Sep-09 04:29N 30°14' W 093°15'0 0.0
2017-Sep-09 03:50N 30°14' W 093°15'0 0.0
2017-Sep-09 03:10N 30°14' W 093°15'0 0.0
2017-Sep-09 03:00N 30°14' W 093°15'0 0.0
2017-Sep-09 02:22N 30°14' W 093°15'0 0.0
2017-Sep-09 02:00N 30°14' W 093°15'0 0.0
2017-Sep-09 01:21N 30°14' W 093°15'0 0.0
2017-Sep-09 01:00N 30°14' W 093°15'0 0.0
2017-Sep-09 00:31N 30°14' W 093°15'0 0.0
2017-Sep-09 00:00N 30°14' W 093°15'0 0.0
2017-Sep-08 23:30N 30°14' W 093°15'0 0.0
2017-Sep-08 23:00N 30°14' W 093°15'0 0.0
2017-Sep-08 22:30N 30°14' W 093°15'0 0.0
2017-Sep-08 21:57N 30°14' W 093°15'0 0.0
2017-Sep-08 21:30N 30°14' W 093°15'0 0.0
2017-Sep-08 21:00N 30°14' W 093°15'0 0.0
2017-Sep-08 18:12N 30°14' W 093°15'0 0.0
2017-Sep-08 18:00N 30°14' W 093°15'0 0.0
2017-Sep-08 17:30N 30°14' W 093°15'0 0.0
2017-Sep-08 17:00N 30°14' W 093°15'0 0.0
2017-Sep-08 16:28N 30°14' W 093°15'0 0.0
2017-Sep-08 16:00N 30°14' W 093°15'0 0.0
2017-Sep-08 15:30N 30°14' W 093°15'0 0.0
2017-Sep-08 15:00N 30°14' W 093°15'0 0.0
2017-Sep-08 14:24N 30°14' W 093°15'0 0.0
2017-Sep-08 14:00N 30°14' W 093°15'0 0.0
2017-Sep-08 13:30N 30°14' W 093°15'0 0.0
2017-Sep-08 13:00N 30°14' W 093°15'0 0.0
2017-Sep-08 12:30N 30°14' W 093°15'0 0.0
2017-Sep-08 12:00N 30°14' W 093°15'0 0.0
2017-Sep-08 11:27N 30°14' W 093°15'0 0.0
2017-Sep-08 09:54N 30°14' W 093°15'0 0.0
2017-Sep-08 08:49N 30°14' W 093°15'0 0.0
2017-Sep-08 08:18N 30°14' W 093°15'0 0.0
2017-Sep-08 07:55N 30°14' W 093°15'0 0.0
2017-Sep-08 07:30N 30°14' W 093°15'0 0.0
2017-Sep-08 06:44N 30°14' W 093°15'0 0.0
2017-Sep-08 06:09N 30°14' W 093°15'0 0.0
2017-Sep-08 04:57N 30°14' W 093°15'0 0.0
2017-Sep-08 03:06N 30°14' W 093°15'0 0.0
2017-Sep-08 02:38N 30°14' W 093°15'0 0.0
2017-Sep-08 02:17N 30°14' W 093°15'  

Dump ship's entire track history